Time;durP1;ratioP1;P1;durP2;ratioP2;P2;SDS_P1;SDS_P2;PMS_P1;PMS_P2;Temp;Humidity;BMP_temperature;BMP_pressure;BME280_temperature;BME280_humidity;BME280_pressure;Samples;Min_cycle;Max_cycle;Signal;HPM_P1;HPM_P2
2022/10/20 00:00:51;;;;;;;7.38;3.80;;;;;;;;;;5071921;28;20040;-69
2022/10/20 00:03:17;;;;;;;5.82;4.07;;;;;;;;;;5070899;28;20040;-69
2022/10/20 00:05:43;;;;;;;8.00;4.10;;;;;;;;;;5070769;28;20041;-69
2022/10/20 00:08:09;;;;;;;8.82;4.20;;;;;;;;;;5070176;28;20048;-69
2022/10/20 00:10:35;;;;;;;8.85;4.10;;;;;;;;;;5070034;28;20145;-69
2022/10/20 00:13:01;;;;;;;7.43;4.00;;;;;;;;;;5070031;28;20064;-69
2022/10/20 00:15:27;;;;;;;6.78;3.88;;;;;;;;;;5071580;28;20390;-69
2022/10/20 00:17:53;;;;;;;8.23;4.35;;;;;;;;;;5071971;28;20440;-69
2022/10/20 00:20:19;;;;;;;10.45;4.13;;;;;;;;;;5070194;28;20051;-69
2022/10/20 00:22:45;;;;;;;9.88;4.00;;;;;;;;;;5070053;28;20507;-69
2022/10/20 00:25:11;;;;;;;9.98;3.72;;;;;;;;;;5070491;28;20047;-69
2022/10/20 00:27:37;;;;;;;8.43;4.15;;;;;;;;;;5071753;28;20056;-69
2022/10/20 00:30:04;;;;;;;7.22;4.25;;;;;;;;;;5071284;28;20149;-69
2022/10/20 00:32:30;;;;;;;5.93;3.67;;;;;;;;;;5053603;28;20041;-69
2022/10/20 00:34:56;;;;;;;8.02;4.15;;;;;;;;;;5071544;28;20173;-69
2022/10/20 00:37:23;;;;;;;8.98;3.60;;;;;;;;;;5069571;28;20056;-69
2022/10/20 00:39:49;;;;;;;10.05;4.63;;;;;;;;;;5071397;28;20047;-69
2022/10/20 00:42:19;;;;;;;7.72;3.88;;;;;;;;;;5070477;28;20076;-69
2022/10/20 00:44:45;;;;;;;10.23;3.85;;;;;;;;;;5070794;28;20048;-69
2022/10/20 00:47:12;;;;;;;9.05;4.70;;;;;;;;;;5069859;28;20037;-69
2022/10/20 00:49:38;;;;;;;9.60;3.70;;;;;;;;;;5069892;28;20048;-69
2022/10/20 00:52:05;;;;;;;7.90;3.90;;;;;;;;;;5070999;28;20056;-69
2022/10/20 00:54:31;;;;;;;10.35;4.05;;;;;;;;;;5071054;28;20043;-69
2022/10/20 00:56:58;;;;;;;6.88;3.80;;;;;;;;;;5069928;28;20470;-69
2022/10/20 00:59:27;;;;;;;11.18;4.20;;;;;;;;;;5070600;28;20124;-69
2022/10/20 01:01:54;;;;;;;8.02;4.43;;;;;;;;;;5069872;28;20128;-69
2022/10/20 01:04:20;;;;;;;11.95;4.15;;;;;;;;;;5069538;28;20044;-69
2022/10/20 01:06:46;;;;;;;7.60;4.30;;;;;;;;;;5069120;28;20037;-69
2022/10/20 01:09:12;;;;;;;9.70;3.83;;;;;;;;;;5070645;28;20060;-69
2022/10/20 01:11:53;;;;;;;8.93;4.20;;;;;;;;;;5069176;28;20053;-69
2022/10/20 01:14:19;;;;;;;9.55;3.85;;;;;;;;;;5052416;28;20079;-69
2022/10/20 01:16:50;;;;;;;6.43;3.42;;;;;;;;;;5069350;28;20045;-69
2022/10/20 01:19:16;;;;;;;7.10;3.83;;;;;;;;;;5069339;28;20044;-69
2022/10/20 01:21:55;;;;;;;9.77;4.68;;;;;;;;;;5068928;28;20056;-69
2022/10/20 01:24:45;;;;;;;7.43;3.85;;;;;;;;;;5068753;28;20037;-69
2022/10/20 01:27:11;;;;;;;9.80;4.05;;;;;;;;;;5050069;28;20056;-69
2022/10/20 01:29:57;;;;;;;6.10;3.75;;;;;;;;;;5070300;28;20048;-69
2022/10/20 01:32:35;;;;;;;8.45;3.88;;;;;;;;;;5070387;28;20053;-69
2022/10/20 01:35:05;;;;;;;8.18;3.92;;;;;;;;;;5068979;28;20044;-69
2022/10/20 01:37:31;;;;;;;8.73;4.00;;;;;;;;;;5069373;28;20541;-69
2022/10/20 01:40:05;;;;;;;8.68;4.18;;;;;;;;;;5068951;28;20127;-69
2022/10/20 01:42:31;;;;;;;9.80;4.03;;;;;;;;;;5068892;28;20041;-69
2022/10/20 01:45:02;;;;;;;6.70;3.90;;;;;;;;;;5069021;28;20041;-69
2022/10/20 01:47:29;;;;;;;7.57;4.32;;;;;;;;;;5069342;28;20518;-69
2022/10/20 01:49:56;;;;;;;11.98;3.90;;;;;;;;;;5068601;28;20596;-69
2022/10/20 01:52:22;;;;;;;8.65;4.05;;;;;;;;;;5070728;28;20174;-69
2022/10/20 01:54:49;;;;;;;8.38;4.28;;;;;;;;;;5070742;28;20037;-69
2022/10/20 01:57:33;;;;;;;6.72;3.75;;;;;;;;;;5068763;28;20643;-69
2022/10/20 02:00:07;;;;;;;10.82;4.22;;;;;;;;;;5070495;28;20120;-69
2022/10/20 02:02:52;;;;;;;8.38;4.72;;;;;;;;;;5070633;28;20495;-69
2022/10/20 02:05:24;;;;;;;7.75;4.47;;;;;;;;;;5068556;28;20035;-69
2022/10/20 02:07:52;;;;;;;11.23;5.68;;;;;;;;;;5069183;28;20045;-69
2022/10/20 02:10:20;;;;;;;10.65;3.85;;;;;;;;;;5068702;28;20137;-69
2022/10/20 02:12:49;;;;;;;7.40;4.22;;;;;;;;;;5068265;28;20066;-69
2022/10/20 02:15:17;;;;;;;8.23;4.40;;;;;;;;;;5070390;28;20075;-69
2022/10/20 02:17:44;;;;;;;8.73;4.13;;;;;;;;;;5068697;28;20040;-69
2022/10/20 02:20:11;;;;;;;7.90;4.15;;;;;;;;;;5069734;28;20127;-69
2022/10/20 02:22:37;;;;;;;7.88;4.85;;;;;;;;;;5068739;28;20392;-69
2022/10/20 02:25:03;;;;;;;8.95;4.13;;;;;;;;;;5068732;28;20048;-69
2022/10/20 02:27:32;;;;;;;10.95;4.82;;;;;;;;;;5069974;28;20040;-69
2022/10/20 02:30:01;;;;;;;5.95;4.10;;;;;;;;;;5068923;28;20041;-69
2022/10/20 02:32:27;;;;;;;7.18;4.70;;;;;;;;;;5070285;28;20386;-69
2022/10/20 02:34:53;;;;;;;8.05;4.90;;;;;;;;;;5069840;28;20441;-69
2022/10/20 02:37:19;;;;;;;8.32;4.72;;;;;;;;;;5055598;28;20457;-69
2022/10/20 02:39:45;;;;;;;7.60;4.38;;;;;;;;;;5072123;28;20045;-69
2022/10/20 02:42:11;;;;;;;8.43;4.38;;;;;;;;;;5073230;28;20472;-69
2022/10/20 02:44:37;;;;;;;8.55;4.57;;;;;;;;;;5072195;28;20116;-69
2022/10/20 02:47:04;;;;;;;11.77;5.10;;;;;;;;;;5072133;28;20040;-69
2022/10/20 02:49:30;;;;;;;15.35;4.47;;;;;;;;;;5055176;28;20052;-69
2022/10/20 02:51:56;;;;;;;13.52;4.30;;;;;;;;;;5073374;28;20040;-69
2022/10/20 02:54:22;;;;;;;9.25;4.35;;;;;;;;;;5073476;28;20082;-69
2022/10/20 02:56:48;;;;;;;8.90;4.47;;;;;;;;;;5071783;28;20363;-69
2022/10/20 02:59:15;;;;;;;8.93;4.47;;;;;;;;;;5073254;28;20040;-69
2022/10/20 03:01:42;;;;;;;9.88;5.07;;;;;;;;;;5072122;28;20044;-69
2022/10/20 03:04:08;;;;;;;9.18;5.43;;;;;;;;;;5071567;28;20140;-69
2022/10/20 03:06:34;;;;;;;9.65;5.70;;;;;;;;;;5071728;28;20098;-69
2022/10/20 03:09:00;;;;;;;10.93;6.03;;;;;;;;;;5071867;28;20479;-69
2022/10/20 03:11:26;;;;;;;10.18;5.40;;;;;;;;;;5070887;28;20394;-69
2022/10/20 03:13:52;;;;;;;14.15;5.75;;;;;;;;;;5071563;28;20121;-69
2022/10/20 03:16:18;;;;;;;9.65;6.03;;;;;;;;;;5054994;28;20041;-69
2022/10/20 03:18:44;;;;;;;12.00;6.05;;;;;;;;;;5072590;28;20041;-69
2022/10/20 03:21:10;;;;;;;11.38;6.22;;;;;;;;;;5071637;28;20049;-69
2022/10/20 03:23:36;;;;;;;8.90;5.40;;;;;;;;;;5071737;28;20081;-69
2022/10/20 03:26:03;;;;;;;12.23;5.70;;;;;;;;;;5070997;28;20846;-69
2022/10/20 03:28:29;;;;;;;10.23;6.05;;;;;;;;;;5071251;28;20072;-69
2022/10/20 03:30:55;;;;;;;11.82;5.82;;;;;;;;;;5072917;28;20483;-69
2022/10/20 03:33:21;;;;;;;8.30;5.60;;;;;;;;;;5072567;28;20041;-69
2022/10/20 03:35:47;;;;;;;8.43;5.25;;;;;;;;;;5071241;28;20036;-69
2022/10/20 03:38:13;;;;;;;10.45;6.25;;;;;;;;;;5071471;28;20384;-69
2022/10/20 03:40:39;;;;;;;12.10;6.10;;;;;;;;;;5070630;28;20418;-69
2022/10/20 03:43:05;;;;;;;13.93;6.28;;;;;;;;;;5071458;28;20044;-69
2022/10/20 03:45:31;;;;;;;9.27;5.65;;;;;;;;;;5071013;28;20105;-69
2022/10/20 03:47:57;;;;;;;13.10;6.38;;;;;;;;;;5070561;28;20040;-69
2022/10/20 03:50:24;;;;;;;10.02;7.00;;;;;;;;;;5070977;28;20219;-69
2022/10/20 03:52:50;;;;;;;10.07;6.50;;;;;;;;;;5072517;28;20471;-69
2022/10/20 03:55:17;;;;;;;9.38;6.65;;;;;;;;;;5070723;28;20118;-69
2022/10/20 03:57:43;;;;;;;12.02;6.68;;;;;;;;;;5070592;28;20094;-69
2022/10/20 04:00:10;;;;;;;12.18;6.47;;;;;;;;;;5070544;28;20058;-69
2022/10/20 04:02:38;;;;;;;15.77;7.20;;;;;;;;;;5070834;28;20120;-69
2022/10/20 04:05:05;;;;;;;11.85;6.88;;;;;;;;;;5071590;28;20495;-69
2022/10/20 04:07:31;;;;;;;11.52;7.35;;;;;;;;;;5070561;28;20036;-69
2022/10/20 04:09:57;;;;;;;12.68;6.57;;;;;;;;;;5070534;28;20612;-69
2022/10/20 04:12:24;;;;;;;12.45;7.63;;;;;;;;;;5070010;28;20063;-69
2022/10/20 04:14:50;;;;;;;12.80;7.38;;;;;;;;;;5071977;28;20402;-69
2022/10/20 04:17:16;;;;;;;13.52;6.80;;;;;;;;;;5070516;28;20036;-69
2022/10/20 04:19:42;;;;;;;12.98;7.95;;;;;;;;;;5069939;28;20723;-69
2022/10/20 04:22:08;;;;;;;11.23;7.88;;;;;;;;;;5070611;28;20041;-69
2022/10/20 04:24:34;;;;;;;11.82;7.63;;;;;;;;;;5071681;28;20041;-69
2022/10/20 04:27:00;;;;;;;11.13;7.80;;;;;;;;;;5069935;28;20047;-69
2022/10/20 04:29:26;;;;;;;10.35;7.03;;;;;;;;;;5070192;28;20127;-68
2022/10/20 04:31:52;;;;;;;12.77;7.97;;;;;;;;;;5071663;28;20076;-68
2022/10/20 04:34:18;;;;;;;13.23;7.78;;;;;;;;;;5070011;28;20474;-68
2022/10/20 04:36:44;;;;;;;12.70;8.23;;;;;;;;;;5070649;28;20036;-68
2022/10/20 04:39:10;;;;;;;12.00;7.88;;;;;;;;;;5070064;28;20083;-69
2022/10/20 04:41:36;;;;;;;16.42;8.70;;;;;;;;;;5069707;28;20040;-69
2022/10/20 04:44:02;;;;;;;13.32;8.05;;;;;;;;;;5070139;28;20041;-69
2022/10/20 04:46:28;;;;;;;13.38;8.13;;;;;;;;;;5070505;28;20121;-69
2022/10/20 04:48:55;;;;;;;16.77;9.10;;;;;;;;;;5069363;28;20048;-69
2022/10/20 04:51:21;;;;;;;11.90;8.38;;;;;;;;;;5071234;28;20044;-69
2022/10/20 04:53:47;;;;;;;12.35;8.45;;;;;;;;;;5070078;28;20041;-69
2022/10/20 04:56:18;;;;;;;10.57;8.40;;;;;;;;;;5069603;28;20386;-69
2022/10/20 04:58:51;;;;;;;13.68;8.70;;;;;;;;;;5069388;28;20442;-69
2022/10/20 05:01:17;;;;;;;13.85;8.93;;;;;;;;;;5071207;28;20036;-69
2022/10/20 05:03:43;;;;;;;16.67;9.73;;;;;;;;;;5070780;28;20462;-69
2022/10/20 05:06:13;;;;;;;12.77;8.75;;;;;;;;;;5069714;28;20040;-69
2022/10/20 05:08:40;;;;;;;15.38;9.50;;;;;;;;;;5069863;28;20310;-69
2022/10/20 05:11:06;;;;;;;15.65;8.93;;;;;;;;;;5070499;28;20057;-69
2022/10/20 05:13:33;;;;;;;13.68;9.48;;;;;;;;;;5070963;28;20402;-68
2022/10/20 05:15:59;;;;;;;13.02;9.65;;;;;;;;;;5069557;28;20071;-68
2022/10/20 05:18:25;;;;;;;15.48;9.18;;;;;;;;;;5069120;28;20685;-68
2022/10/20 05:20:51;;;;;;;13.52;9.57;;;;;;;;;;5070774;28;20036;-68
2022/10/20 05:23:17;;;;;;;13.85;9.52;;;;;;;;;;5070682;28;20040;-68
2022/10/20 05:25:43;;;;;;;15.43;9.95;;;;;;;;;;5068830;28;20043;-68
2022/10/20 05:28:09;;;;;;;14.65;9.75;;;;;;;;;;5069647;28;20044;-68
2022/10/20 05:30:35;;;;;;;16.25;10.13;;;;;;;;;;5069102;28;20186;-68
2022/10/20 05:33:02;;;;;;;14.52;10.43;;;;;;;;;;5052017;28;20040;-68
2022/10/20 05:35:28;;;;;;;14.50;10.32;;;;;;;;;;5069107;28;20044;-69
2022/10/20 05:37:54;;;;;;;14.40;9.93;;;;;;;;;;5068895;28;20054;-69
2022/10/20 05:40:20;;;;;;;13.80;9.52;;;;;;;;;;5068579;28;20044;-69
2022/10/20 05:42:46;;;;;;;17.23;10.13;;;;;;;;;;5070405;28;20127;-69
2022/10/20 05:45:12;;;;;;;15.43;10.40;;;;;;;;;;5052477;28;20040;-69
2022/10/20 05:47:38;;;;;;;19.05;11.23;;;;;;;;;;5068756;28;20041;-69
2022/10/20 05:50:04;;;;;;;18.08;10.68;;;;;;;;;;5051081;28;20040;-70
2022/10/20 05:52:30;;;;;;;19.70;11.15;;;;;;;;;;5068024;28;20131;-69
2022/10/20 05:54:58;;;;;;;16.83;10.85;;;;;;;;;;5069096;28;20044;-67
2022/10/20 05:57:24;;;;;;;14.63;10.55;;;;;;;;;;5068062;28;20402;-69
2022/10/20 05:59:50;;;;;;;16.65;10.95;;;;;;;;;;5068701;28;20043;-69
2022/10/20 06:02:16;;;;;;;19.55;10.27;;;;;;;;;;5069870;28;20054;-70
2022/10/20 06:04:42;;;;;;;17.00;9.93;;;;;;;;;;5052071;28;20455;-71
2022/10/20 06:07:11;;;;;;;14.55;10.80;;;;;;;;;;5068472;28;20086;-70
2022/10/20 06:09:37;;;;;;;15.75;11.13;;;;;;;;;;5069330;28;20036;-71
2022/10/20 06:12:04;;;;;;;17.75;11.57;;;;;;;;;;5073126;28;20120;-71
2022/10/20 06:14:30;;;;;;;14.55;11.13;;;;;;;;;;5072274;28;20055;-71
2022/10/20 06:16:56;;;;;;;17.88;12.73;;;;;;;;;;5071840;28;20036;-71
2022/10/20 06:19:22;;;;;;;18.38;11.07;;;;;;;;;;5067704;28;20041;-71
2022/10/20 06:21:49;;;;;;;17.08;11.27;;;;;;;;;;5078337;28;20155;-67
2022/10/20 06:24:15;;;;;;;17.33;11.38;;;;;;;;;;5066392;28;20063;-69
2022/10/20 06:26:42;;;;;;;17.73;12.02;;;;;;;;;;5073865;28;20066;-69
2022/10/20 06:29:12;;;;;;;16.55;12.07;;;;;;;;;;5073522;28;20081;-67
2022/10/20 06:31:39;;;;;;;17.42;11.57;;;;;;;;;;5073746;28;20036;-67
2022/10/20 06:34:06;;;;;;;17.63;12.18;;;;;;;;;;5073019;28;20040;-69
2022/10/20 06:36:36;;;;;;;16.42;12.13;;;;;;;;;;5073047;28;20171;-69
2022/10/20 06:39:03;;;;;;;18.17;12.23;;;;;;;;;;5072698;28;20040;-70
2022/10/20 06:41:30;;;;;;;17.98;12.40;;;;;;;;;;5073361;28;20060;-70
2022/10/20 06:43:59;;;;;;;17.42;12.07;;;;;;;;;;5071861;28;20048;-70
2022/10/20 06:46:26;;;;;;;15.57;12.18;;;;;;;;;;5071357;28;20052;-70
2022/10/20 06:48:52;;;;;;;19.85;12.57;;;;;;;;;;5071442;28;20080;-69
2022/10/20 06:51:20;;;;;;;17.73;12.15;;;;;;;;;;5073376;28;20044;-69
2022/10/20 06:53:47;;;;;;;15.63;10.52;;;;;;;;;;5071534;28;20476;-69
2022/10/20 06:56:18;;;;;;;26.48;12.30;;;;;;;;;;5072927;28;20044;-70
2022/10/20 06:58:44;;;;;;;16.38;11.18;;;;;;;;;;5073214;28;20048;-68
2022/10/20 07:01:11;;;;;;;17.35;11.18;;;;;;;;;;5065083;28;20425;-70
2022/10/20 07:03:38;;;;;;;17.42;11.75;;;;;;;;;;5070975;28;20058;-61
2022/10/20 07:06:05;;;;;;;18.45;11.55;;;;;;;;;;5072114;28;20082;-62
2022/10/20 07:08:32;;;;;;;18.63;12.27;;;;;;;;;;5070309;28;20040;-62
2022/10/20 07:11:18;;;;;;;14.70;11.45;;;;;;;;;;5068350;28;20044;-61
2022/10/20 07:13:45;;;;;;;23.05;12.75;;;;;;;;;;5072356;28;20049;-61
2022/10/20 07:16:12;;;;;;;16.58;11.48;;;;;;;;;;5070454;28;20040;-61
2022/10/20 07:18:39;;;;;;;15.60;11.15;;;;;;;;;;5059619;28;20500;-62
2022/10/20 07:21:06;;;;;;;18.33;11.80;;;;;;;;;;5065800;28;20040;-61
2022/10/20 07:23:32;;;;;;;18.70;11.55;;;;;;;;;;5067867;28;20127;-63
2022/10/20 07:26:04;;;;;;;16.60;11.82;;;;;;;;;;5066604;28;20097;-62
2022/10/20 07:28:31;;;;;;;18.40;11.73;;;;;;;;;;5069556;28;20039;-62
2022/10/20 07:30:58;;;;;;;15.88;11.93;;;;;;;;;;5068570;28;20039;-62
2022/10/20 07:33:24;;;;;;;15.07;11.35;;;;;;;;;;5067650;28;20068;-62
2022/10/20 07:35:50;;;;;;;17.52;12.25;;;;;;;;;;5070154;28;20037;-58
2022/10/20 07:38:16;;;;;;;16.77;11.60;;;;;;;;;;5069036;28;20241;-62
2022/10/20 07:40:42;;;;;;;20.48;12.40;;;;;;;;;;5070423;28;20506;-62
2022/10/20 07:43:08;;;;;;;20.17;12.18;;;;;;;;;;5069904;28;20047;-62
2022/10/20 07:45:34;;;;;;;16.95;11.52;;;;;;;;;;5070306;28;20408;-61
2022/10/20 07:48:03;;;;;;;17.95;11.15;;;;;;;;;;5064816;28;20036;-62
2022/10/20 07:50:29;;;;;;;16.30;11.57;;;;;;;;;;5065801;28;20474;-62
2022/10/20 07:52:55;;;;;;;16.98;11.32;;;;;;;;;;5070841;28;20178;-61
2022/10/20 07:55:21;;;;;;;17.45;11.48;;;;;;;;;;5069804;28;20430;-62
2022/10/20 07:57:47;;;;;;;21.65;11.30;;;;;;;;;;5070589;28;20037;-60
2022/10/20 08:00:13;;;;;;;21.23;11.30;;;;;;;;;;5058234;28;20060;-62
2022/10/20 08:02:44;;;;;;;16.00;11.13;;;;;;;;;;5068346;28;20044;-60
2022/10/20 08:05:10;;;;;;;16.48;11.68;;;;;;;;;;5066101;28;20048;-63
2022/10/20 08:07:36;;;;;;;18.10;12.35;;;;;;;;;;5068560;28;20410;-63
2022/10/20 08:10:02;;;;;;;15.43;10.50;;;;;;;;;;5066003;28;20040;-62
2022/10/20 08:12:28;;;;;;;17.38;11.07;;;;;;;;;;5069274;28;20131;-62
2022/10/20 08:14:54;;;;;;;14.60;11.15;;;;;;;;;;5066528;28;20383;-62
2022/10/20 08:17:20;;;;;;;13.95;10.82;;;;;;;;;;5063431;28;20044;-62
2022/10/20 08:19:46;;;;;;;17.25;11.38;;;;;;;;;;5063530;28;20040;-61
2022/10/20 08:22:12;;;;;;;14.90;11.18;;;;;;;;;;5067648;28;20037;-62
2022/10/20 08:24:38;;;;;;;17.77;11.77;;;;;;;;;;5069637;28;20173;-62
2022/10/20 08:27:04;;;;;;;15.30;11.85;;;;;;;;;;5068652;28;20040;-62
2022/10/20 08:29:30;;;;;;;17.60;11.25;;;;;;;;;;5064725;28;20037;-63
2022/10/20 08:31:56;;;;;;;13.27;10.52;;;;;;;;;;5067098;28;20029;-71
2022/10/20 08:34:22;;;;;;;16.80;10.20;;;;;;;;;;5061922;28;20044;-71
2022/10/20 08:36:48;;;;;;;15.90;9.63;;;;;;;;;;5065014;28;20573;-71
2022/10/20 08:39:14;;;;;;;16.17;10.25;;;;;;;;;;5066743;28;20045;-70
2022/10/20 08:41:45;;;;;;;17.98;10.80;;;;;;;;;;5068465;28;20568;-69
2022/10/20 08:44:16;;;;;;;16.33;10.43;;;;;;;;;;5065471;28;20045;-70
2022/10/20 08:46:42;;;;;;;14.55;10.57;;;;;;;;;;5100722;28;20032;-68
2022/10/20 08:49:12;;;;;;;16.00;10.30;;;;;;;;;;5066766;28;20170;-69
2022/10/20 08:51:39;;;;;;;14.77;10.40;;;;;;;;;;5066346;28;20567;-69
2022/10/20 08:54:12;;;;;;;14.25;9.93;;;;;;;;;;5066751;28;20048;-69
2022/10/20 08:56:38;;;;;;;15.95;10.32;;;;;;;;;;5066962;28;20036;-69
2022/10/20 08:59:15;;;;;;;14.38;10.00;;;;;;;;;;5064896;28;20051;-67
2022/10/20 09:01:41;;;;;;;14.48;10.02;;;;;;;;;;5067206;28;20035;-67
2022/10/20 09:04:16;;;;;;;14.90;9.57;;;;;;;;;;5064587;28;20051;-67
2022/10/20 09:06:43;;;;;;;12.82;9.10;;;;;;;;;;5065180;28;20051;-69
2022/10/20 09:09:13;;;;;;;14.57;9.48;;;;;;;;;;5065857;28;20040;-72
2022/10/20 09:11:39;;;;;;;12.88;10.20;;;;;;;;;;5067458;28;20121;-64
2022/10/20 09:14:07;;;;;;;12.13;9.70;;;;;;;;;;5067247;28;20052;-62
2022/10/20 09:16:37;;;;;;;15.50;10.50;;;;;;;;;;5068291;28;20040;-62
2022/10/20 09:19:04;;;;;;;16.35;10.40;;;;;;;;;;5068888;28;20045;-62
2022/10/20 09:21:32;;;;;;;12.73;9.50;;;;;;;;;;5066468;28;20040;-62
2022/10/20 09:24:02;;;;;;;14.68;9.77;;;;;;;;;;5069517;28;20478;-61
2022/10/20 09:26:31;;;;;;;13.10;9.25;;;;;;;;;;5068918;28;20096;-62
2022/10/20 09:29:08;;;;;;;17.77;9.85;;;;;;;;;;5067548;28;20044;-61
2022/10/20 09:31:35;;;;;;;12.65;9.00;;;;;;;;;;5066080;28;20545;-67
2022/10/20 09:34:01;;;;;;;13.30;8.40;;;;;;;;;;5067452;28;20112;-67
2022/10/20 09:36:30;;;;;;;14.15;9.95;;;;;;;;;;5067888;28;20033;-66
2022/10/20 09:38:56;;;;;;;12.82;9.02;;;;;;;;;;5067457;28;20052;-67
2022/10/20 09:41:27;;;;;;;14.02;9.05;;;;;;;;;;5067171;28;20079;-69
2022/10/20 09:43:55;;;;;;;12.77;9.43;;;;;;;;;;5065749;28;20044;-72
2022/10/20 09:46:26;;;;;;;16.88;8.88;;;;;;;;;;5064147;28;20089;-71
2022/10/20 09:48:52;;;;;;;13.32;9.23;;;;;;;;;;5066484;28;20376;-67
2022/10/20 09:51:29;;;;;;;17.50;9.15;;;;;;;;;;5066565;28;20576;-66
2022/10/20 09:53:58;;;;;;;14.40;9.23;;;;;;;;;;5067512;28;20558;-67
2022/10/20 09:56:34;;;;;;;15.48;9.15;;;;;;;;;;5067797;28;20075;-69
2022/10/20 09:59:01;;;;;;;11.63;9.02;;;;;;;;;;5066088;28;20139;-68
2022/10/20 10:01:27;;;;;;;12.95;8.95;;;;;;;;;;5068580;28;20152;-67
2022/10/20 10:03:58;;;;;;;15.77;9.52;;;;;;;;;;5065161;28;20044;-68
2022/10/20 10:06:27;;;;;;;16.38;8.75;;;;;;;;;;5067984;28;20434;-67
2022/10/20 10:08:53;;;;;;;13.43;8.50;;;;;;;;;;5067524;28;20122;-67
2022/10/20 10:11:21;;;;;;;14.10;9.57;;;;;;;;;;5065398;28;20526;-66
2022/10/20 10:13:49;;;;;;;12.27;9.07;;;;;;;;;;5067142;28;20057;-67
2022/10/20 10:16:19;;;;;;;11.50;8.32;;;;;;;;;;5064974;28;20411;-68
2022/10/20 10:18:54;;;;;;;12.85;8.65;;;;;;;;;;5061732;28;20131;-67
2022/10/20 10:21:20;;;;;;;14.48;9.32;;;;;;;;;;5066508;28;20197;-67
2022/10/20 10:23:50;;;;;;;11.52;8.40;;;;;;;;;;5067992;28;20502;-70
2022/10/20 10:26:33;;;;;;;12.05;8.80;;;;;;;;;;5064355;28;20036;-64
2022/10/20 10:28:59;;;;;;;14.20;8.77;;;;;;;;;;5061768;28;20068;-64
2022/10/20 10:31:26;;;;;;;15.75;8.57;;;;;;;;;;5067184;28;21077;-61
2022/10/20 10:33:54;;;;;;;11.63;8.52;;;;;;;;;;5065731;28;20047;-64
2022/10/20 10:36:23;;;;;;;13.02;9.00;;;;;;;;;;5059364;28;20040;-63
2022/10/20 10:38:49;;;;;;;15.27;8.63;;;;;;;;;;5068655;28;20040;-64
2022/10/20 10:41:19;;;;;;;12.88;8.32;;;;;;;;;;5067532;28;20378;-63
2022/10/20 10:43:54;;;;;;;12.75;8.57;;;;;;;;;;5067793;28;20040;-63
2022/10/20 10:46:26;;;;;;;12.30;8.23;;;;;;;;;;5068292;28;20043;-63
2022/10/20 10:48:52;;;;;;;9.77;7.43;;;;;;;;;;5068135;28;20037;-63
2022/10/20 10:51:38;;;;;;;9.95;7.97;;;;;;;;;;5067444;28;20581;-64
2022/10/20 10:54:13;;;;;;;10.95;8.43;;;;;;;;;;5063622;28;20054;-64
2022/10/20 10:56:50;;;;;;;11.27;8.23;;;;;;;;;;5070943;28;20147;-64
2022/10/20 10:59:16;;;;;;;12.75;8.25;;;;;;;;;;5051560;28;20053;-64
2022/10/20 11:01:45;;;;;;;11.95;8.63;;;;;;;;;;5070920;28;20406;-64
2022/10/20 11:04:29;;;;;;;12.20;7.65;;;;;;;;;;5072042;28;20036;-64
2022/10/20 11:06:55;;;;;;;13.93;8.30;;;;;;;;;;5070200;28;20044;-64
2022/10/20 11:09:27;;;;;;;13.80;8.63;;;;;;;;;;5071745;28;20036;-64
2022/10/20 11:12:08;;;;;;;11.55;8.48;;;;;;;;;;5057103;28;20131;-64
2022/10/20 11:14:54;;;;;;;11.50;7.80;;;;;;;;;;5072081;28;20037;-64
2022/10/20 11:17:58;;;;;;;13.43;8.32;;;;;;;;;;5071833;28;20079;-64
2022/10/20 11:20:24;;;;;;;10.45;8.40;;;;;;;;;;5040025;28;20038;-64
2022/10/20 11:22:59;;;;;;;10.82;8.70;;;;;;;;;;5045466;28;20040;-63
2022/10/20 11:25:37;;;;;;;12.32;8.55;;;;;;;;;;5060994;28;20055;-63
2022/10/20 11:28:05;;;;;;;12.32;8.40;;;;;;;;;;5071584;28;20399;-63
2022/10/20 11:30:33;;;;;;;14.57;8.70;;;;;;;;;;5071278;28;20391;-63
2022/10/20 11:33:13;;;;;;;14.85;8.35;;;;;;;;;;5071171;28;20075;-64
2022/10/20 11:35:45;;;;;;;14.05;8.85;;;;;;;;;;5071164;28;20043;-63
2022/10/20 11:38:31;;;;;;;16.08;7.95;;;;;;;;;;5069720;28;20043;-63
2022/10/20 11:41:04;;;;;;;13.48;8.70;;;;;;;;;;5071162;28;20048;-63
2022/10/20 11:43:40;;;;;;;16.55;8.77;;;;;;;;;;5070289;28;20051;-64
2022/10/20 11:46:09;;;;;;;12.25;8.27;;;;;;;;;;5063681;28;20093;-64
2022/10/20 11:48:46;;;;;;;14.32;8.65;;;;;;;;;;5065543;28;20036;-65
2022/10/20 11:51:20;;;;;;;15.38;9.30;;;;;;;;;;5060902;28;20046;-64
2022/10/20 11:53:58;;;;;;;14.80;10.30;;;;;;;;;;5069606;28;20063;-65
2022/10/20 11:56:33;;;;;;;13.75;8.95;;;;;;;;;;5051152;28;20051;-65
2022/10/20 11:58:59;;;;;;;13.10;9.00;;;;;;;;;;5069916;28;20044;-64
2022/10/20 12:01:37;;;;;;;12.15;8.45;;;;;;;;;;5067271;28;20524;-64
2022/10/20 12:04:03;;;;;;;14.18;9.57;;;;;;;;;;5057439;28;20064;-65
2022/10/20 12:06:29;;;;;;;14.13;9.82;;;;;;;;;;5065732;28;20072;-64
2022/10/20 12:08:58;;;;;;;12.57;9.00;;;;;;;;;;5064058;28;20728;-64
2022/10/20 12:11:30;;;;;;;12.43;9.10;;;;;;;;;;5069070;28;20049;-63
2022/10/20 12:14:00;;;;;;;13.48;9.70;;;;;;;;;;5068426;28;20044;-67
2022/10/20 12:16:45;;;;;;;13.02;10.20;;;;;;;;;;5066253;28;20098;-64
2022/10/20 12:19:18;;;;;;;14.20;9.73;;;;;;;;;;5065537;28;20047;-64
2022/10/20 12:21:58;;;;;;;12.77;10.45;;;;;;;;;;5067931;28;20449;-64
2022/10/20 12:24:32;;;;;;;13.10;9.77;;;;;;;;;;5078291;28;20390;-63
2022/10/20 12:27:05;;;;;;;15.90;10.32;;;;;;;;;;5070465;28;20044;-63
2022/10/20 12:29:31;;;;;;;22.10;10.70;;;;;;;;;;5063863;28;20406;-64
2022/10/20 12:32:19;;;;;;;15.85;10.63;;;;;;;;;;5080270;28;20041;-63
2022/10/20 12:34:46;;;;;;;20.75;11.07;;;;;;;;;;5063969;28;20492;-64
2022/10/20 12:37:15;;;;;;;16.45;11.63;;;;;;;;;;5067997;28;20136;-64
2022/10/20 12:39:41;;;;;;;17.92;10.70;;;;;;;;;;5066689;28;20147;-65
2022/10/20 12:42:18;;;;;;;16.48;10.70;;;;;;;;;;5064895;28;20062;-65
2022/10/20 12:44:45;;;;;;;17.73;11.75;;;;;;;;;;5068657;28;20472;-65
2022/10/20 12:47:30;;;;;;;13.65;10.85;;;;;;;;;;5069624;28;20072;-63
2022/10/20 12:50:00;;;;;;;17.42;12.45;;;;;;;;;;5068363;28;20042;-64
2022/10/20 12:52:28;;;;;;;18.50;11.32;;;;;;;;;;5068355;28;20044;-63
2022/10/20 12:55:02;;;;;;;16.70;11.27;;;;;;;;;;5067288;28;20036;-64
2022/10/20 12:57:40;;;;;;;17.08;12.45;;;;;;;;;;5068475;28;20482;-63
2022/10/20 13:00:07;;;;;;;15.43;11.60;;;;;;;;;;5050535;28;20114;-64
2022/10/20 13:02:43;;;;;;;21.30;12.40;;;;;;;;;;5063634;28;20463;-63
2022/10/20 13:05:09;;;;;;;16.83;12.07;;;;;;;;;;5069821;28;20029;-62
2022/10/20 13:07:58;;;;;;;23.88;12.80;;;;;;;;;;5070013;28;20095;-64
2022/10/20 13:10:28;;;;;;;15.88;11.95;;;;;;;;;;5069477;28;20527;-63
2022/10/20 13:13:03;;;;;;;19.48;13.27;;;;;;;;;;5069779;28;20063;-63
2022/10/20 13:15:29;;;;;;;18.52;13.30;;;;;;;;;;5069848;28;20084;-63
2022/10/20 13:18:00;;;;;;;20.00;13.40;;;;;;;;;;5069892;28;20044;-63
2022/10/20 13:20:39;;;;;;;17.33;13.45;;;;;;;;;;5069330;28;20083;-63
2022/10/20 13:23:09;;;;;;;23.23;14.13;;;;;;;;;;5069805;28;20375;-63
2022/10/20 13:25:44;;;;;;;21.73;13.80;;;;;;;;;;5069275;28;20062;-63
2022/10/20 13:28:13;;;;;;;20.00;13.93;;;;;;;;;;5070381;28;20048;-62
2022/10/20 13:31:02;;;;;;;22.23;13.80;;;;;;;;;;5069372;28;20095;-68
2022/10/20 13:33:34;;;;;;;18.92;14.48;;;;;;;;;;5062352;28;20091;-64
2022/10/20 13:36:00;;;;;;;20.17;14.10;;;;;;;;;;5069858;28;20041;-65
2022/10/20 13:38:40;;;;;;;23.17;14.05;;;;;;;;;;5069407;28;20078;-62
2022/10/20 13:41:06;;;;;;;20.15;14.50;;;;;;;;;;5069170;28;20124;-62
2022/10/20 13:43:50;;;;;;;21.27;14.35;;;;;;;;;;5069594;28;20037;-63
2022/10/20 13:46:16;;;;;;;20.55;13.98;;;;;;;;;;5069573;28;20044;-64
2022/10/20 13:49:00;;;;;;;20.48;14.20;;;;;;;;;;5068829;28;20113;-63
2022/10/20 13:51:28;;;;;;;23.05;15.00;;;;;;;;;;5068754;28;20059;-63
2022/10/20 13:53:55;;;;;;;26.42;15.02;;;;;;;;;;5069162;28;20040;-63
2022/10/20 13:56:34;;;;;;;20.92;14.43;;;;;;;;;;5068736;28;20067;-62
2022/10/20 13:59:02;;;;;;;23.45;14.43;;;;;;;;;;5069349;28;20045;-63
2022/10/20 14:01:29;;;;;;;21.60;15.55;;;;;;;;;;5068321;28;20123;-63
2022/10/20 14:03:55;;;;;;;27.08;15.88;;;;;;;;;;5069643;28;20040;-62
2022/10/20 14:06:32;;;;;;;22.70;15.10;;;;;;;;;;5069036;28;20540;-63
2022/10/20 14:09:08;;;;;;;24.70;15.82;;;;;;;;;;5069587;28;20051;-64
2022/10/20 14:11:34;;;;;;;23.50;15.07;;;;;;;;;;5065746;28;20083;-64
2022/10/20 14:14:01;;;;;;;24.77;15.13;;;;;;;;;;5069534;28;20052;-64
2022/10/20 14:16:28;;;;;;;26.88;16.33;;;;;;;;;;5069226;28;20044;-62
2022/10/20 14:19:04;;;;;;;23.92;16.20;;;;;;;;;;5069031;28;20047;-62
2022/10/20 14:21:38;;;;;;;22.02;15.60;;;;;;;;;;5068960;28;20142;-63
2022/10/20 14:24:05;;;;;;;27.25;16.85;;;;;;;;;;5049307;28;20037;-64
2022/10/20 14:26:32;;;;;;;26.05;16.17;;;;;;;;;;5061635;28;20529;-64
2022/10/20 14:29:00;;;;;;;22.30;15.38;;;;;;;;;;5069133;28;20051;-63
2022/10/20 14:31:27;;;;;;;25.67;16.25;;;;;;;;;;5071462;28;20055;-63
2022/10/20 14:33:53;;;;;;;26.08;16.70;;;;;;;;;;5072757;28;20057;-64
2022/10/20 14:36:19;;;;;;;28.48;17.55;;;;;;;;;;5071566;28;20047;-63
2022/10/20 14:38:49;;;;;;;29.58;17.33;;;;;;;;;;5070923;28;20359;-63